Time;durP1;ratioP1;P1;durP2;ratioP2;P2;SDS_P1;SDS_P2;PMS_P1;PMS_P2;Temp;Humidity;BMP_temperature;BMP_pressure;BME280_temperature;BME280_humidity;BME280_pressure;Samples;Min_cycle;Max_cycle;Signal;HPM_P1;HPM_P2
2024/01/30 00:00:18;;;;;;;9.90;8.00;;;18.80;49.60;;;;;;5073717;28;20437;-77
2024/01/30 00:02:47;;;;;;;10.77;8.60;;;18.80;49.70;;;;;;5073959;28;20457;-76
2024/01/30 00:05:16;;;;;;;14.50;9.03;;;18.80;49.60;;;;;;5072095;28;20511;-76
2024/01/30 00:07:44;;;;;;;13.40;8.93;;;18.80;49.60;;;;;;5073593;28;20434;-74
2024/01/30 00:10:12;;;;;;;11.97;8.47;;;18.80;49.70;;;;;;5073472;28;20473;-74
2024/01/30 00:12:40;;;;;;;10.67;8.13;;;18.80;49.70;;;;;;5073231;28;21021;-75
2024/01/30 00:15:09;;;;;;;11.97;8.10;;;18.70;49.70;;;;;;5072637;28;20434;-74
2024/01/30 00:17:37;;;;;;;12.90;8.57;;;18.70;50.30;;;;;;5073237;28;20441;-75
2024/01/30 00:20:09;;;;;;;10.20;7.80;;;18.70;49.80;;;;;;5073676;28;20437;-75
2024/01/30 00:22:37;;;;;;;13.13;7.73;;;18.70;50.00;;;;;;5072850;28;20453;-74
2024/01/30 00:25:05;;;;;;;12.57;8.90;;;18.60;49.90;;;;;;5064054;28;20500;-74
2024/01/30 00:27:34;;;;;;;11.10;8.10;;;18.70;50.00;;;;;;5061833;28;20447;-74
2024/01/30 00:30:02;;;;;;;10.87;8.23;;;18.60;50.00;;;;;;5061107;28;20462;-75
2024/01/30 00:32:30;;;;;;;9.53;8.33;;;18.70;50.00;;;;;;5063521;28;20461;-76
2024/01/30 00:34:58;;;;;;;11.67;8.67;;;18.70;50.60;;;;;;5061642;28;20975;-76
2024/01/30 00:37:27;;;;;;;10.50;7.90;;;18.60;49.90;;;;;;5060950;28;20518;-76
2024/01/30 00:39:55;;;;;;;12.33;8.30;;;18.60;50.10;;;;;;5061312;28;20493;-76
2024/01/30 00:42:23;;;;;;;11.90;8.13;;;18.60;50.00;;;;;;5063745;28;20561;-76
2024/01/30 00:44:52;;;;;;;10.20;8.03;;;18.60;50.10;;;;;;5062180;28;20561;-75
2024/01/30 00:47:20;;;;;;;12.77;8.20;;;18.60;50.20;;;;;;5065525;28;20465;-76
2024/01/30 00:49:47;;;;;;;11.73;7.93;;;18.50;50.10;;;;;;5060888;28;20466;-76
2024/01/30 00:52:15;;;;;;;10.80;7.80;;;18.50;50.20;;;;;;5063693;28;20506;-75
2024/01/30 00:54:45;;;;;;;9.20;7.80;;;18.50;50.10;;;;;;5062004;28;20449;-76
2024/01/30 00:57:13;;;;;;;13.17;8.40;;;18.50;50.10;;;;;;5063966;28;20435;-75
2024/01/30 00:59:41;;;;;;;13.00;8.23;;;18.50;50.30;;;;;;5061382;28;20433;-76
2024/01/30 01:02:09;;;;;;;10.13;7.47;;;18.50;50.30;;;;;;5062755;28;20446;-75
2024/01/30 01:04:37;;;;;;;11.30;8.40;;;18.50;50.20;;;;;;5061356;28;20550;-75
2024/01/30 01:07:05;;;;;;;10.73;7.90;;;18.50;50.20;;;;;;5060952;28;20442;-75
2024/01/30 01:09:33;;;;;;;14.33;8.60;;;18.40;50.30;;;;;;5060683;28;20434;-76
2024/01/30 01:12:02;;;;;;;10.90;8.03;;;18.40;50.20;;;;;;5071008;28;20461;-76
2024/01/30 01:14:30;;;;;;;13.33;8.13;;;18.40;50.30;;;;;;5071726;28;20441;-74
2024/01/30 01:16:59;;;;;;;14.40;8.80;;;18.40;50.10;;;;;;5072472;28;20446;-75
2024/01/30 01:19:27;;;;;;;12.30;8.40;;;18.40;50.40;;;;;;5072161;28;20473;-74
2024/01/30 01:21:55;;;;;;;10.57;7.83;;;18.30;50.20;;;;;;5072028;28;20476;-74
2024/01/30 01:24:25;;;;;;;9.70;7.30;;;18.30;50.20;;;;;;5060166;22;20887;-76
2024/01/30 01:26:53;;;;;;;11.43;8.10;;;18.30;50.30;;;;;;5024276;28;20483;-77
2024/01/30 01:29:28;;;;;;;13.17;8.60;;;18.30;50.10;;;;;;5022757;28;20432;-75
2024/01/30 01:31:56;;;;;;;15.53;9.13;;;18.20;50.40;;;;;;5031077;28;20526;-76
2024/01/30 01:34:24;;;;;;;12.27;8.10;;;18.20;50.10;;;;;;5020515;28;20459;-76
2024/01/30 01:36:57;;;;;;;11.07;7.80;;;18.20;50.30;;;;;;5010922;28;20507;-76
2024/01/30 01:39:25;;;;;;;10.47;7.73;;;18.20;50.50;;;;;;5010933;28;20448;-77
2024/01/30 01:41:53;;;;;;;11.00;8.30;;;18.20;50.30;;;;;;5010346;28;20531;-75
2024/01/30 01:44:22;;;;;;;10.23;7.80;;;18.20;50.30;;;;;;5018580;28;20551;-76
2024/01/30 01:46:50;;;;;;;11.23;7.73;;;18.20;50.20;;;;;;5011396;28;20499;-79
2024/01/30 01:49:19;;;;;;;11.73;8.23;;;18.10;50.20;;;;;;5012157;28;20449;-77
2024/01/30 01:51:48;;;;;;;11.50;7.83;;;18.10;50.50;;;;;;5007044;28;20472;-77
2024/01/30 01:54:16;;;;;;;9.70;7.37;;;18.10;50.30;;;;;;5010949;28;20468;-76
2024/01/30 01:56:44;;;;;;;10.60;7.43;;;18.00;50.30;;;;;;5010894;28;20519;-77
2024/01/30 01:59:12;;;;;;;14.50;8.87;;;18.10;50.40;;;;;;5017221;28;20455;-76
2024/01/30 02:01:41;;;;;;;16.83;11.70;;;18.10;50.20;;;;;;5018882;28;20515;-75
2024/01/30 02:04:09;;;;;;;15.77;11.30;;;18.00;50.20;;;;;;5010471;28;20479;-77
2024/01/30 02:06:37;;;;;;;17.93;12.20;;;18.00;50.20;;;;;;5010439;28;20473;-77
2024/01/30 02:09:05;;;;;;;22.00;14.47;;;18.00;50.30;;;;;;5021620;28;20439;-78
2024/01/30 02:11:33;;;;;;;21.57;13.47;;;18.00;50.30;;;;;;5030670;28;20443;-76
2024/01/30 02:14:03;;;;;;;26.07;16.33;;;18.00;50.30;;;;;;5030292;28;20455;-74
2024/01/30 02:16:32;;;;;;;21.80;14.77;;;18.00;50.20;;;;;;5020906;28;20461;-76
2024/01/30 02:19:01;;;;;;;21.17;13.10;;;17.90;50.20;;;;;;5024867;28;20447;-76
2024/01/30 02:21:31;;;;;;;24.10;15.77;;;17.90;50.20;;;;;;5030821;28;20439;-76
2024/01/30 02:24:04;;;;;;;25.60;15.90;;;17.80;50.20;;;;;;5030886;28;20499;-75
2024/01/30 02:26:33;;;;;;;22.30;14.50;;;17.90;50.10;;;;;;5031025;28;20530;-78
2024/01/30 02:29:01;;;;;;;24.77;15.17;;;17.80;50.10;;;;;;5030152;28;20505;-79
2024/01/30 02:31:29;;;;;;;23.80;14.27;;;17.80;50.20;;;;;;5023540;28;20485;-77
2024/01/30 02:33:57;;;;;;;23.23;15.70;;;17.80;50.20;;;;;;5023338;28;20462;-79
2024/01/30 02:36:24;;;;;;;25.20;16.40;;;17.80;50.20;;;;;;5030216;28;20526;-78
2024/01/30 02:38:54;;;;;;;24.80;15.73;;;17.80;50.30;;;;;;5029899;28;20443;-77
2024/01/30 02:41:22;;;;;;;25.60;16.50;;;17.80;50.20;;;;;;5029922;28;20507;-78
2024/01/30 02:43:49;;;;;;;26.97;16.33;;;17.70;50.20;;;;;;5029724;28;20494;-78
2024/01/30 02:46:17;;;;;;;22.17;15.03;;;17.70;50.30;;;;;;5024942;28;20518;-78
2024/01/30 02:48:45;;;;;;;23.63;15.00;;;17.70;50.20;;;;;;5014062;28;20530;-78
2024/01/30 02:51:14;;;;;;;23.00;14.80;;;17.70;50.40;;;;;;5031172;28;20478;-77
2024/01/30 02:53:42;;;;;;;26.20;15.90;;;17.70;50.20;;;;;;5030024;28;20459;-77
2024/01/30 02:56:13;;;;;;;23.20;15.10;;;17.70;50.30;;;;;;5030306;28;20451;-79
2024/01/30 02:58:41;;;;;;;22.57;15.30;;;17.70;50.30;;;;;;5030144;28;20454;-78
2024/01/30 03:01:09;;;;;;;21.97;14.70;;;17.70;50.10;;;;;;5030118;28;20531;-78
2024/01/30 03:03:37;;;;;;;23.67;15.50;;;17.70;50.30;;;;;;5020121;28;20480;-75
2024/01/30 03:06:06;;;;;;;25.10;15.20;;;17.70;50.20;;;;;;5021307;28;20471;-79
2024/01/30 03:08:35;;;;;;;22.13;14.67;;;17.60;50.10;;;;;;5029796;28;20588;-79
2024/01/30 03:11:03;;;;;;;22.47;14.83;;;17.70;50.40;;;;;;5029986;28;20546;-78
2024/01/30 03:13:32;;;;;;;21.47;14.30;;;17.60;50.30;;;;;;5029632;28;20484;-77
2024/01/30 03:15:59;;;;;;;21.80;14.73;;;17.70;50.30;;;;;;5029851;28;20521;-78
2024/01/30 03:18:28;;;;;;;21.77;14.10;;;17.60;50.20;;;;;;5023680;28;20453;-78
2024/01/30 03:20:56;;;;;;;24.67;15.70;;;17.60;50.50;;;;;;5021657;28;20443;-77
2024/01/30 03:23:24;;;;;;;21.47;13.80;;;17.70;50.60;;;;;;5029161;28;20570;-78
2024/01/30 03:25:52;;;;;;;22.07;13.77;;;17.70;50.50;;;;;;5029599;28;20481;-78
2024/01/30 03:28:20;;;;;;;20.60;13.80;;;17.70;50.30;;;;;;5029587;28;20447;-77
2024/01/30 03:30:49;;;;;;;22.47;13.83;;;17.70;50.30;;;;;;5029551;28;20454;-78
2024/01/30 03:33:18;;;;;;;21.63;14.13;;;17.70;50.40;;;;;;5029193;28;20468;-75
2024/01/30 03:35:46;;;;;;;21.93;13.40;;;17.70;50.30;;;;;;5026351;28;20455;-76
2024/01/30 03:38:14;;;;;;;22.10;14.67;;;17.60;50.40;;;;;;5021618;28;20443;-75
2024/01/30 03:40:42;;;;;;;18.90;12.87;;;17.70;50.40;;;;;;5031996;28;20510;-75
2024/01/30 03:43:10;;;;;;;18.20;12.60;;;17.60;50.40;;;;;;5032739;28;20451;-74
2024/01/30 03:45:38;;;;;;;20.43;12.90;;;17.60;50.20;;;;;;5033173;28;20483;-75
2024/01/30 03:48:08;;;;;;;19.27;13.07;;;17.60;50.40;;;;;;5032944;28;20440;-78
2024/01/30 03:50:36;;;;;;;19.60;13.30;;;17.60;50.30;;;;;;5031010;28;20451;-78
2024/01/30 03:53:04;;;;;;;20.20;13.73;;;17.60;50.50;;;;;;5021628;28;20488;-78
2024/01/30 03:55:32;;;;;;;21.07;13.73;;;17.60;50.60;;;;;;5030816;28;20540;-77
2024/01/30 03:58:00;;;;;;;16.33;11.23;;;17.60;50.40;;;;;;5032775;28;20490;-78
2024/01/30 04:00:28;;;;;;;15.83;11.30;;;17.60;50.30;;;;;;5032818;28;20527;-78
2024/01/30 04:02:56;;;;;;;17.57;11.97;;;17.60;50.50;;;;;;5032804;28;20566;-79
2024/01/30 04:05:26;;;;;;;15.60;11.70;;;17.60;50.40;;;;;;5032696;28;20472;-78
2024/01/30 04:07:54;;;;;;;16.33;11.60;;;17.60;50.10;;;;;;5033347;28;20454;-78
2024/01/30 04:10:22;;;;;;;14.53;11.17;;;17.50;50.40;;;;;;5021476;28;20514;-77
2024/01/30 04:12:51;;;;;;;17.03;12.27;;;17.50;50.20;;;;;;4993159;28;20489;-76
2024/01/30 04:15:19;;;;;;;14.83;10.77;;;17.50;50.40;;;;;;4992610;28;20452;-77
2024/01/30 04:17:47;;;;;;;16.70;11.23;;;17.50;50.40;;;;;;4993621;28;20433;-78
2024/01/30 04:20:16;;;;;;;17.10;11.40;;;17.50;50.60;;;;;;4993676;28;20536;-78
2024/01/30 04:22:45;;;;;;;17.80;11.43;;;17.50;50.40;;;;;;4993568;28;20469;-77
2024/01/30 04:25:14;;;;;;;16.00;10.90;;;17.50;50.20;;;;;;5011195;28;20479;-78
2024/01/30 04:27:42;;;;;;;17.70;11.10;;;17.50;50.50;;;;;;5024415;28;20530;-79
2024/01/30 04:30:11;;;;;;;15.70;11.07;;;17.50;50.30;;;;;;5032785;28;20455;-77
2024/01/30 04:32:39;;;;;;;16.47;10.70;;;17.50;50.30;;;;;;5011878;28;20472;-78
2024/01/30 04:35:07;;;;;;;14.87;11.00;;;17.50;50.30;;;;;;5012213;28;20448;-78
2024/01/30 04:37:39;;;;;;;14.23;10.47;;;17.50;50.40;;;;;;5005366;28;20502;-77
2024/01/30 04:40:09;;;;;;;20.33;11.67;;;17.40;50.20;;;;;;5010952;28;20463;-77
2024/01/30 04:42:37;;;;;;;15.90;10.60;;;17.40;50.50;;;;;;5012366;28;20562;-76
2024/01/30 04:45:09;;;;;;;14.23;10.67;;;17.40;50.30;;;;;;5006531;28;20524;-75
2024/01/30 04:47:37;;;;;;;16.23;11.33;;;17.40;50.20;;;;;;5002089;28;20449;-76
2024/01/30 04:50:06;;;;;;;15.10;10.30;;;17.40;50.20;;;;;;5011998;28;20448;-77
2024/01/30 04:52:34;;;;;;;14.43;10.67;;;17.40;50.50;;;;;;5010152;28;20480;-78
2024/01/30 04:55:02;;;;;;;16.87;10.57;;;17.40;50.60;;;;;;5004922;28;20479;-77
2024/01/30 04:57:33;;;;;;;15.77;10.80;;;17.40;50.50;;;;;;5011934;28;20468;-77
2024/01/30 05:00:01;;;;;;;14.77;9.93;;;17.40;50.20;;;;;;5007182;28;20461;-77
2024/01/30 05:02:29;;;;;;;15.83;10.30;;;17.30;50.40;;;;;;4992081;28;20457;-78
2024/01/30 05:04:58;;;;;;;14.33;9.70;;;17.30;50.40;;;;;;4994542;28;20449;-77
2024/01/30 05:07:26;;;;;;;13.80;10.17;;;17.30;50.40;;;;;;5000244;28;20475;-75
2024/01/30 05:09:55;;;;;;;15.17;9.77;;;17.30;50.30;;;;;;5011253;28;20444;-78
2024/01/30 05:12:26;;;;;;;13.17;9.30;;;17.40;50.50;;;;;;5007901;28;20460;-78
2024/01/30 05:14:55;;;;;;;15.70;10.07;;;17.40;50.30;;;;;;5010755;28;20524;-79
2024/01/30 05:17:22;;;;;;;13.93;9.77;;;17.30;50.40;;;;;;5010931;28;20440;-76
2024/01/30 05:19:50;;;;;;;14.03;9.50;;;17.30;50.20;;;;;;5009782;28;20464;-78
2024/01/30 05:22:18;;;;;;;15.60;10.20;;;17.30;50.30;;;;;;5011647;28;20528;-78
2024/01/30 05:24:46;;;;;;;13.93;9.67;;;17.30;50.50;;;;;;5007811;28;20475;-77
2024/01/30 05:27:14;;;;;;;15.80;10.10;;;17.30;50.50;;;;;;4991113;28;20527;-77
2024/01/30 05:29:42;;;;;;;12.47;8.93;;;17.30;50.40;;;;;;5001842;28;20480;-79
2024/01/30 05:32:11;;;;;;;15.20;8.87;;;17.30;50.50;;;;;;5011191;28;20547;-79
2024/01/30 05:34:39;;;;;;;12.37;9.13;;;17.30;50.20;;;;;;5009586;28;20542;-78
2024/01/30 05:37:07;;;;;;;13.13;9.10;;;17.30;50.30;;;;;;5002690;28;20444;-75
2024/01/30 05:39:35;;;;;;;11.47;8.20;;;17.30;50.60;;;;;;4997795;28;20475;-78
2024/01/30 05:42:04;;;;;;;11.30;9.40;;;17.30;50.30;;;;;;5014774;28;20442;-77
2024/01/30 05:44:32;;;;;;;11.70;9.00;;;17.30;50.40;;;;;;5031410;28;20479;-77
2024/01/30 05:47:00;;;;;;;12.47;8.77;;;17.30;50.60;;;;;;5031892;28;20562;-76
2024/01/30 05:49:29;;;;;;;12.30;8.63;;;17.30;50.30;;;;;;5028526;28;20488;-78
2024/01/30 05:51:57;;;;;;;10.17;8.20;;;17.30;50.60;;;;;;5023407;28;20499;-77
2024/01/30 05:54:25;;;;;;;10.53;8.30;;;17.30;50.60;;;;;;5011615;28;20469;-79
2024/01/30 05:56:54;;;;;;;10.97;7.80;;;17.30;50.60;;;;;;5012355;28;20536;-77
2024/01/30 05:59:22;;;;;;;11.83;8.07;;;17.30;50.50;;;;;;5012290;28;20444;-77
2024/01/30 06:01:50;;;;;;;10.80;8.50;;;17.30;50.60;;;;;;5012140;28;20448;-77
2024/01/30 06:04:18;;;;;;;8.77;7.80;;;17.30;50.60;;;;;;5011303;28;20471;-78
2024/01/30 06:06:47;;;;;;;10.77;7.83;;;17.30;50.80;;;;;;5011760;28;20472;-78
2024/01/30 06:09:15;;;;;;;10.33;8.30;;;17.30;50.70;;;;;;5019830;28;20448;-76
2024/01/30 06:11:43;;;;;;;12.10;8.03;;;17.30;50.70;;;;;;5011844;28;20475;-78
2024/01/30 06:14:11;;;;;;;10.60;8.00;;;17.30;50.60;;;;;;5011470;28;20468;-78
2024/01/30 06:16:39;;;;;;;10.00;8.20;;;17.30;50.50;;;;;;5011960;28;20443;-77
2024/01/30 06:19:07;;;;;;;11.50;7.80;;;17.30;50.60;;;;;;5012113;28;20479;-78
2024/01/30 06:21:36;;;;;;;9.53;7.43;;;17.30;50.70;;;;;;5011495;28;20445;-77
2024/01/30 06:24:06;;;;;;;11.60;8.30;;;17.30;50.70;;;;;;5011639;28;20495;-78
2024/01/30 06:26:34;;;;;;;10.50;7.43;;;17.30;50.60;;;;;;5029287;28;20554;-77
2024/01/30 06:29:02;;;;;;;9.57;7.83;;;17.20;50.70;;;;;;5031786;28;20454;-75
2024/01/30 06:31:31;;;;;;;12.50;8.90;;;17.30;50.90;;;;;;5012701;28;20500;-76
2024/01/30 06:33:58;;;;;;;12.03;7.70;;;17.30;50.60;;;;;;4991675;28;20469;-78
2024/01/30 06:36:27;;;;;;;8.97;7.93;;;17.30;50.70;;;;;;4992098;28;20473;-76
2024/01/30 06:38:54;;;;;;;9.63;8.17;;;17.20;50.70;;;;;;4991945;28;20438;-78
2024/01/30 06:41:24;;;;;;;9.93;8.40;;;17.20;50.70;;;;;;4993024;28;20434;-77
2024/01/30 06:43:51;;;;;;;10.23;8.10;;;17.20;50.80;;;;;;5027234;28;20480;-77
2024/01/30 06:46:19;;;;;;;11.43;8.57;;;17.20;50.80;;;;;;5001033;28;20471;-78
2024/01/30 06:48:47;;;;;;;8.30;6.90;;;17.20;50.60;;;;;;4992103;28;20808;-78
2024/01/30 06:51:15;;;;;;;10.33;7.63;;;17.20;50.70;;;;;;4991669;28;20445;-77
2024/01/30 06:53:45;;;;;;;9.40;7.77;;;17.20;50.70;;;;;;5009213;28;20452;-78
2024/01/30 06:56:13;;;;;;;8.00;7.03;;;17.20;50.70;;;;;;5011043;28;20534;-77
2024/01/30 06:58:42;;;;;;;9.33;7.60;;;17.20;50.80;;;;;;5010678;28;20456;-79
2024/01/30 07:01:11;;;;;;;9.53;7.83;;;17.20;50.80;;;;;;5004868;28;20549;-78
2024/01/30 07:03:39;;;;;;;10.10;7.10;;;17.20;50.90;;;;;;4991638;28;20488;-78
2024/01/30 07:06:07;;;;;;;9.10;7.80;;;17.10;50.80;;;;;;4991808;28;20460;-77
2024/01/30 07:08:37;;;;;;;11.27;8.33;;;17.10;50.90;;;;;;5000972;28;20465;-77
2024/01/30 07:11:05;;;;;;;8.30;7.40;;;17.20;50.80;;;;;;5011361;28;20480;-77
2024/01/30 07:13:33;;;;;;;12.23;8.47;;;17.20;50.50;;;;;;5010711;28;20472;-77
2024/01/30 07:16:03;;;;;;;9.43;7.20;;;17.10;50.80;;;;;;5012602;28;20452;-77
2024/01/30 07:18:31;;;;;;;11.13;7.50;;;17.10;50.90;;;;;;5014831;28;20444;-78
2024/01/30 07:20:59;;;;;;;8.60;6.50;;;17.10;50.80;;;;;;5022032;28;20476;-77
2024/01/30 07:23:29;;;;;;;11.67;7.70;;;17.10;50.70;;;;;;5030902;28;20502;-77
2024/01/30 07:25:57;;;;;;;10.07;7.40;;;17.10;50.80;;;;;;5034683;28;20471;-78
2024/01/30 07:28:25;;;;;;;8.90;7.33;;;17.10;50.80;;;;;;5033027;28;20547;-78
2024/01/30 07:30:54;;;;;;;10.20;7.87;;;17.10;50.60;;;;;;5022603;28;20516;-78
2024/01/30 07:33:23;;;;;;;10.83;8.30;;;17.10;50.80;;;;;;5003449;28;20456;-76
2024/01/30 07:35:53;;;;;;;10.80;7.90;;;17.10;50.90;;;;;;5002508;28;21031;-76
2024/01/30 07:38:21;;;;;;;14.60;8.00;;;17.10;50.60;;;;;;5001654;28;20933;-76
2024/01/30 07:40:49;;;;;;;9.23;7.23;;;17.10;50.70;;;;;;5002629;28;20449;-76
2024/01/30 07:43:17;;;;;;;8.53;7.30;;;17.10;50.50;;;;;;5002454;28;20472;-77
2024/01/30 07:45:45;;;;;;;10.17;8.00;;;17.10;50.70;;;;;;5001265;28;20468;-77
2024/01/30 07:48:14;;;;;;;10.63;7.70;;;17.10;50.70;;;;;;5004771;28;20483;-76
2024/01/30 07:50:44;;;;;;;8.37;6.90;;;17.10;50.70;;;;;;5006321;28;20450;-77
2024/01/30 07:53:12;;;;;;;8.20;7.13;;;17.10;50.70;;;;;;5003470;28;20564;-77
2024/01/30 07:55:40;;;;;;;8.07;7.27;;;17.10;50.70;;;;;;5012985;28;20475;-76
2024/01/30 07:58:07;;;;;;;8.27;7.20;;;17.20;50.60;;;;;;5007476;28;20479;-77
2024/01/30 08:00:36;;;;;;;10.03;7.43;;;17.20;50.70;;;;;;5012276;28;20456;-77
2024/01/30 08:03:05;;;;;;;10.90;8.40;;;17.10;50.70;;;;;;5008432;28;20460;-80
2024/01/30 08:05:33;;;;;;;7.83;7.00;;;17.20;50.80;;;;;;5005249;28;20433;-77
2024/01/30 08:08:03;;;;;;;11.03;7.83;;;17.20;50.70;;;;;;5008608;28;20477;-78
2024/01/30 08:10:30;;;;;;;10.03;7.47;;;17.10;50.70;;;;;;5008687;28;20476;-77
2024/01/30 08:12:58;;;;;;;8.53;7.00;;;17.20;50.80;;;;;;5006979;28;20465;-78
2024/01/30 08:15:26;;;;;;;10.10;7.73;;;17.20;50.60;;;;;;5007532;28;20433;-78
2024/01/30 08:17:57;;;;;;;11.47;8.07;;;17.20;50.40;;;;;;5004354;28;20460;-79
2024/01/30 08:20:25;;;;;;;8.67;7.47;;;17.20;50.70;;;;;;5010285;28;20452;-78
2024/01/30 08:22:53;;;;;;;12.80;7.43;;;17.20;50.50;;;;;;5009738;28;20563;-78
2024/01/30 08:25:23;;;;;;;9.77;6.90;;;17.20;50.50;;;;;;5008173;28;20436;-78
2024/01/30 08:27:51;;;;;;;13.30;7.90;;;17.20;50.40;;;;;;5012418;28;20560;-79
2024/01/30 08:30:18;;;;;;;10.87;8.20;;;17.20;50.40;;;;;;5017492;28;20431;-77
2024/01/30 08:32:46;;;;;;;8.73;7.17;;;17.20;50.40;;;;;;5022575;28;20455;-77
2024/01/30 08:35:15;;;;;;;12.43;7.47;;;17.20;50.40;;;;;;5028052;28;20445;-78
2024/01/30 08:37:44;;;;;;;11.90;7.83;;;17.20;50.40;;;;;;5013187;28;20482;-78
2024/01/30 08:40:12;;;;;;;9.63;7.73;;;17.30;50.40;;;;;;5023209;28;20444;-76
2024/01/30 08:42:41;;;;;;;10.20;7.67;;;17.30;50.30;;;;;;5013597;28;20472;-77
2024/01/30 08:45:10;;;;;;;10.70;7.90;;;17.30;50.20;;;;;;5013772;28;20494;-77
2024/01/30 08:47:38;;;;;;;10.73;8.60;;;17.30;50.10;;;;;;5013157;28;20494;-76
2024/01/30 08:50:07;;;;;;;10.30;7.67;;;17.30;50.30;;;;;;5014081;28;20439;-75
2024/01/30 08:52:35;;;;;;;10.50;7.70;;;17.40;50.20;;;;;;5012952;28;20455;-77
2024/01/30 08:55:04;;;;;;;8.73;7.57;;;17.40;50.30;;;;;;5017875;28;20464;-77
2024/01/30 08:57:32;;;;;;;8.77;7.40;;;17.40;50.30;;;;;;5016693;28;20451;-77
2024/01/30 09:00:06;;;;;;;11.57;8.17;;;17.40;50.30;;;;;;5004035;28;20465;-78
2024/01/30 09:02:34;;;;;;;9.50;6.90;;;17.40;50.20;;;;;;5002601;28;20457;-75
2024/01/30 09:05:03;;;;;;;8.27;7.20;;;17.50;50.30;;;;;;5000027;28;20445;-76
2024/01/30 09:07:31;;;;;;;11.03;8.23;;;17.50;50.40;;;;;;5009167;28;20452;-77
2024/01/30 09:09:59;;;;;;;8.73;6.87;;;17.50;50.40;;;;;;5001831;28;20436;-77
2024/01/30 09:12:28;;;;;;;12.73;7.07;;;17.50;50.30;;;;;;5002538;28;20444;-76
2024/01/30 09:14:56;;;;;;;11.70;7.73;;;17.50;50.10;;;;;;5000734;28;20558;-78
2024/01/30 09:17:25;;;;;;;9.43;6.93;;;17.60;50.30;;;;;;5003714;28;20542;-77
2024/01/30 09:19:53;;;;;;;9.43;7.27;;;17.60;50.30;;;;;;5003336;28;20441;-77
2024/01/30 09:22:21;;;;;;;9.20;6.57;;;17.60;50.10;;;;;;5002128;28;20441;-77
2024/01/30 09:24:49;;;;;;;9.83;7.00;;;17.70;50.30;;;;;;5000106;28;20953;-77
2024/01/30 09:27:17;;;;;;;7.23;6.37;;;17.70;50.40;;;;;;5001504;28;20476;-77
2024/01/30 09:29:45;;;;;;;9.20;7.20;;;17.70;50.40;;;;;;5002545;28;20558;-78
2024/01/30 09:32:13;;;;;;;8.93;6.87;;;17.60;50.40;;;;;;5003440;28;21024;-77
2024/01/30 09:34:42;;;;;;;7.93;6.70;;;17.70;50.40;;;;;;5000202;28;20464;-77
2024/01/30 09:37:11;;;;;;;6.43;5.83;;;17.80;50.40;;;;;;4999918;28;20425;-77
2024/01/30 09:39:39;;;;;;;9.87;6.80;;;17.80;50.40;;;;;;5002854;28;20444;-79
2024/01/30 09:42:11;;;;;;;13.27;6.80;;;17.80;50.20;;;;;;5002321;28;20480;-77
2024/01/30 09:44:41;;;;;;;8.40;6.50;;;17.80;50.30;;;;;;5001701;28;20491;-77
2024/01/30 09:47:09;;;;;;;10.60;7.00;;;17.80;50.40;;;;;;5000635;28;20951;-79
2024/01/30 09:49:37;;;;;;;9.63;6.90;;;17.80;50.30;;;;;;4999895;28;21091;-78
2024/01/30 09:52:07;;;;;;;7.67;5.80;;;17.90;50.40;;;;;;5005739;28;20441;-78
2024/01/30 09:54:35;;;;;;;10.40;6.50;;;17.90;50.40;;;;;;5010326;28;20468;-78
2024/01/30 09:57:04;;;;;;;8.27;6.43;;;17.90;50.40;;;;;;5011677;28;20448;-77
2024/01/30 09:59:32;;;;;;;7.47;6.03;;;18.00;50.40;;;;;;5011519;28;20511;-77
2024/01/30 10:02:01;;;;;;;10.17;6.40;;;18.00;50.40;;;;;;5011250;28;20507;-77
2024/01/30 10:04:29;;;;;;;6.60;5.87;;;18.00;50.40;;;;;;5010858;28;20464;-78
2024/01/30 10:06:58;;;;;;;9.70;6.20;;;18.10;50.40;;;;;;5011648;28;20790;-77
2024/01/30 10:09:28;;;;;;;9.50;6.67;;;18.20;50.30;;;;;;5004809;28;20551;-79
2024/01/30 10:11:56;;;;;;;7.43;5.80;;;18.20;50.30;;;;;;5001963;28;20445;-78
2024/01/30 10:14:25;;;;;;;9.00;6.77;;;18.20;50.30;;;;;;4996439;28;20507;-77
2024/01/30 10:16:53;;;;;;;8.70;5.87;;;18.30;50.30;;;;;;5002580;28;20504;-77
2024/01/30 10:19:21;;;;;;;6.97;6.23;;;18.30;50.20;;;;;;4998272;28;20449;-77
2024/01/30 10:21:49;;;;;;;8.37;5.63;;;18.40;50.30;;;;;;5001629;28;20464;-78
2024/01/30 10:24:17;;;;;;;8.27;6.07;;;18.40;50.20;;;;;;5005107;28;20468;-76
2024/01/30 10:26:46;;;;;;;8.47;6.00;;;18.50;50.80;;;;;;5003889;28;20460;-77
2024/01/30 10:29:14;;;;;;;6.90;5.63;;;18.50;50.20;;;;;;4991846;28;20469;-77
2024/01/30 10:31:46;;;;;;;5.80;5.30;;;18.50;50.20;;;;;;4992003;28;20437;-80
2024/01/30 10:34:14;;;;;;;7.23;5.77;;;18.50;50.10;;;;;;4990533;28;21006;-78
2024/01/30 10:36:51;;;;;;;9.33;5.90;;;18.60;50.30;;;;;;4991014;28;20463;-78
2024/01/30 10:39:19;;;;;;;7.50;6.30;;;18.60;50.20;;;;;;4991431;28;20441;-77
2024/01/30 10:41:49;;;;;;;7.23;5.37;;;18.70;50.30;;;;;;4992067;28;20441;-78
2024/01/30 10:44:19;;;;;;;6.70;5.77;;;18.70;50.10;;;;;;4991807;28;20527;-78
2024/01/30 10:46:48;;;;;;;6.97;5.50;;;18.80;50.30;;;;;;4991513;28;20448;-79
2024/01/30 10:49:16;;;;;;;7.07;5.70;;;18.90;50.30;;;;;;4993334;28;20568;-77
2024/01/30 10:51:44;;;;;;;8.50;5.60;;;18.90;50.20;;;;;;4995973;28;20480;-77
2024/01/30 10:54:13;;;;;;;7.80;5.50;;;19.00;50.20;;;;;;4995480;28;20557;-77
2024/01/30 10:56:41;;;;;;;8.10;5.40;;;19.00;50.00;;;;;;4995428;28;20477;-79
2024/01/30 10:59:11;;;;;;;7.87;5.50;;;19.00;50.10;;;;;;4994864;28;20475;-80
2024/01/30 11:01:40;;;;;;;7.13;5.90;;;19.00;50.10;;;;;;4994862;28;20464;-79
2024/01/30 11:04:07;;;;;;;6.50;5.23;;;19.00;50.20;;;;;;4994197;28;20515;-78
2024/01/30 11:06:41;;;;;;;6.93;5.37;;;19.10;50.20;;;;;;4994707;28;20495;-80
2024/01/30 11:09:12;;;;;;;7.63;5.83;;;19.10;50.10;;;;;;4995156;28;20572;-78
2024/01/30 11:11:51;;;;;;;8.23;5.40;;;19.10;50.10;;;;;;4994467;28;20509;-78
2024/01/30 11:14:25;;;;;;;7.07;5.63;;;19.10;50.00;;;;;;4993907;28;20452;-78
2024/01/30 11:16:54;;;;;;;5.90;5.30;;;19.10;50.70;;;;;;4994627;28;20441;-78
2024/01/30 11:19:25;;;;;;;6.33;5.37;;;19.10;50.20;;;;;;4994131;28;20437;-78
2024/01/30 11:21:54;;;;;;;6.17;5.57;;;19.10;50.30;;;;;;4994263;28;20445;-77
2024/01/30 11:24:22;;;;;;;6.23;5.37;;;19.10;50.30;;;;;;4992809;28;20576;-75
2024/01/30 11:26:51;;;;;;;6.10;5.50;;;19.10;50.20;;;;;;4994448;28;20525;-76
2024/01/30 11:29:19;;;;;;;8.73;5.37;;;19.10;50.40;;;;;;4994382;28;20543;-74
2024/01/30 11:31:55;;;;;;;5.90;5.30;;;19.10;50.40;;;;;;4994360;28;20839;-75
2024/01/30 11:34:23;;;;;;;5.67;5.17;;;19.10;50.40;;;;;;4993712;28;20559;-74
2024/01/30 11:36:58;;;;;;;6.03;5.40;;;19.10;50.50;;;;;;4994459;28;20449;-74
2024/01/30 11:39:27;;;;;;;7.40;5.53;;;19.00;50.40;;;;;;4994252;28;20490;-74
2024/01/30 11:41:55;;;;;;;6.17;5.17;;;19.10;50.50;;;;;;4994436;28;20473;-76
2024/01/30 11:44:24;;;;;;;7.00;5.70;;;19.10;50.60;;;;;;4994023;28;20496;-77
2024/01/30 11:46:53;;;;;;;7.30;5.70;;;19.10;50.60;;;;;;4994424;28;20457;-78
2024/01/30 11:49:22;;;;;;;9.73;5.80;;;19.10;50.60;;;;;;4994479;28;20472;-78
2024/01/30 11:51:50;;;;;;;6.47;5.53;;;19.10;50.60;;;;;;4994076;28;20503;-79
2024/01/30 11:54:19;;;;;;;6.43;5.30;;;19.20;50.70;;;;;;4993918;28;20504;-78
2024/01/30 11:56:47;;;;;;;7.40;5.60;;;19.20;50.60;;;;;;4993805;28;20441;-79
2024/01/30 11:59:15;;;;;;;7.50;5.70;;;19.20;51.20;;;;;;4993795;28;20507;-78
2024/01/30 12:01:43;;;;;;;5.77;5.17;;;19.30;50.60;;;;;;4993295;28;20500;-79
2024/01/30 12:04:11;;;;;;;7.10;5.00;;;19.30;50.60;;;;;;4993228;28;20469;-78
2024/01/30 12:06:41;;;;;;;6.87;5.33;;;19.30;50.60;;;;;;4993840;28;20511;-81
2024/01/30 12:09:12;;;;;;;6.60;5.40;;;19.30;50.60;;;;;;4993888;28;20452;-78
2024/01/30 12:11:46;;;;;;;6.00;5.40;;;19.30;50.60;;;;;;4993687;28;20461;-78
2024/01/30 12:14:14;;;;;;;7.07;4.63;;;19.30;50.60;;;;;;4993268;28;20463;-76
2024/01/30 12:16:42;;;;;;;11.87;5.57;;;19.30;50.60;;;;;;4993585;28;20453;-77
2024/01/30 12:19:10;;;;;;;8.50;5.53;;;19.30;50.60;;;;;;4993626;28;20491;-76
2024/01/30 12:21:40;;;;;;;6.27;5.10;;;19.30;50.60;;;;;;4993311;28;20452;-77
2024/01/30 12:24:08;;;;;;;5.90;4.60;;;19.30;50.70;;;;;;4992040;28;20531;-76
2024/01/30 12:26:36;;;;;;;5.80;5.00;;;19.30;50.80;;;;;;4993590;28;20520;-77
2024/01/30 12:29:04;;;;;;;6.07;5.40;;;19.30;50.90;;;;;;4993579;28;20468;-79
2024/01/30 12:31:33;;;;;;;7.13;5.30;;;19.30;50.80;;;;;;4993673;28;20477;-75
2024/01/30 12:34:01;;;;;;;7.83;5.40;;;19.40;50.90;;;;;;4992826;28;20933;-76
2024/01/30 12:36:30;;;;;;;6.03;5.43;;;19.40;50.80;;;;;;4993143;28;20473;-76
2024/01/30 12:38:59;;;;;;;5.53;4.97;;;19.40;50.90;;;;;;4993155;28;20449;-76
2024/01/30 12:41:29;;;;;;;6.50;5.90;;;19.40;50.90;;;;;;4993333;28;21093;-76
2024/01/30 12:43:58;;;;;;;7.03;5.23;;;19.40;50.90;;;;;;4992546;28;20520;-76